Time;durP1;ratioP1;P1;durP2;ratioP2;P2;SDS_P1;SDS_P2;PMS_P1;PMS_P2;Temp;Humidity;BMP_temperature;BMP_pressure;BME280_temperature;BME280_humidity;BME280_pressure;Samples;Min_cycle;Max_cycle;Signal;HPM_P1;HPM_P2
2024/01/09 00:00:04;;;;;;;6.45;1.70;;;;;;;;;;4981166;28;94754;-80
2024/01/09 00:02:31;;;;;;;4.60;1.42;;;;;;;;;;4982189;28;92197;-80
2024/01/09 00:04:57;;;;;;;7.97;1.58;;;;;;;;;;4982926;28;93245;-80
2024/01/09 00:07:24;;;;;;;4.57;1.38;;;;;;;;;;4966006;28;95280;-81
2024/01/09 00:09:50;;;;;;;3.75;1.50;;;;;;;;;;4984131;28;92477;-80
2024/01/09 00:12:17;;;;;;;4.28;1.50;;;;;;;;;;4987025;28;94658;-79
2024/01/09 00:14:44;;;;;;;3.72;1.40;;;;;;;;;;4981155;28;95312;-81
2024/01/09 00:17:10;;;;;;;4.25;1.50;;;;;;;;;;4966445;28;92081;-81
2024/01/09 00:19:37;;;;;;;3.03;1.30;;;;;;;;;;4984966;28;94953;-80
2024/01/09 00:22:04;;;;;;;4.20;1.50;;;;;;;;;;4966045;28;92150;-80
2024/01/09 00:24:30;;;;;;;3.80;1.40;;;;;;;;;;4982437;28;93067;-80
2024/01/09 00:26:57;;;;;;;4.75;1.55;;;;;;;;;;4967715;28;95325;-85
2024/01/09 00:29:23;;;;;;;4.93;1.60;;;;;;;;;;4984548;28;91909;-84
2024/01/09 00:31:50;;;;;;;5.00;1.70;;;;;;;;;;4967462;28;93406;-84
2024/01/09 00:34:17;;;;;;;5.47;1.90;;;;;;;;;;4967203;28;95541;-83
2024/01/09 00:36:44;;;;;;;3.28;1.50;;;;;;;;;;4982696;28;94465;-84
2024/01/09 00:39:11;;;;;;;5.07;1.80;;;;;;;;;;4965779;28;97195;-84
2024/01/09 00:41:37;;;;;;;3.78;1.70;;;;;;;;;;4987076;28;93469;-83
2024/01/09 00:44:04;;;;;;;4.30;1.60;;;;;;;;;;4966790;28;94433;-83
2024/01/09 00:46:31;;;;;;;4.40;1.70;;;;;;;;;;4984510;28;93030;-84
2024/01/09 00:48:57;;;;;;;3.95;1.42;;;;;;;;;;4983199;28;92092;-83
2024/01/09 00:51:24;;;;;;;5.05;1.88;;;;;;;;;;4981552;28;94904;-81
2024/01/09 00:53:54;;;;;;;5.03;1.60;;;;;;;;;;4982664;28;95136;-83
2024/01/09 00:56:21;;;;;;;4.85;1.80;;;;;;;;;;4981452;28;92517;-82
2024/01/09 00:58:48;;;;;;;4.00;1.55;;;;;;;;;;4982545;28;94969;-82
2024/01/09 01:01:14;;;;;;;3.85;1.80;;;;;;;;;;4980703;28;95219;-81
2024/01/09 01:03:42;;;;;;;5.45;1.73;;;;;;;;;;4987638;28;91995;-82
2024/01/09 01:06:09;;;;;;;4.90;1.70;;;;;;;;;;4983543;28;92710;-83
2024/01/09 01:08:37;;;;;;;3.85;1.60;;;;;;;;;;4983585;28;92223;-82
2024/01/09 01:11:05;;;;;;;3.05;1.50;;;;;;;;;;4981077;28;94547;-82
2024/01/09 01:13:32;;;;;;;4.00;1.70;;;;;;;;;;4990828;28;95122;-83
2024/01/09 01:15:58;;;;;;;4.38;1.60;;;;;;;;;;4982860;28;92061;-82
2024/01/09 01:18:25;;;;;;;4.82;1.90;;;;;;;;;;4982450;28;92356;-83
2024/01/09 01:20:52;;;;;;;4.22;1.60;;;;;;;;;;4981621;28;92686;-82
2024/01/09 01:23:19;;;;;;;4.35;1.70;;;;;;;;;;4982971;28;92480;-81
2024/01/09 01:25:45;;;;;;;5.30;1.63;;;;;;;;;;4985836;28;94472;-81
2024/01/09 01:28:12;;;;;;;4.53;1.70;;;;;;;;;;4982521;28;92523;-79
2024/01/09 01:30:39;;;;;;;3.20;1.58;;;;;;;;;;4985416;28;93927;-81
2024/01/09 01:33:05;;;;;;;4.18;1.73;;;;;;;;;;4969288;28;95506;-82
2024/01/09 01:35:32;;;;;;;4.50;1.55;;;;;;;;;;4982537;28;92236;-81
2024/01/09 01:37:59;;;;;;;3.55;1.60;;;;;;;;;;4991319;28;92560;-81
2024/01/09 01:40:25;;;;;;;6.07;1.65;;;;;;;;;;4971157;28;94981;-83
2024/01/09 01:42:55;;;;;;;8.27;1.90;;;;;;;;;;4983965;28;91396;-84
2024/01/09 01:45:22;;;;;;;3.92;1.52;;;;;;;;;;4983176;28;92400;-82
2024/01/09 01:47:49;;;;;;;9.45;1.88;;;;;;;;;;4968080;28;95839;-83
2024/01/09 01:50:15;;;;;;;4.35;1.58;;;;;;;;;;4979067;28;94655;-82
2024/01/09 01:52:43;;;;;;;6.05;1.63;;;;;;;;;;4983222;28;93183;-83
2024/01/09 01:55:10;;;;;;;5.82;1.75;;;;;;;;;;4982903;28;92596;-83
2024/01/09 01:57:38;;;;;;;4.97;1.70;;;;;;;;;;4986762;28;94483;-84
2024/01/09 02:00:05;;;;;;;4.90;1.73;;;;;;;;;;4970074;28;94413;-82
2024/01/09 02:02:35;;;;;;;5.18;1.60;;;;;;;;;;4987432;28;93372;-82
2024/01/09 02:05:03;;;;;;;3.65;1.67;;;;;;;;;;4987384;28;91978;-84
2024/01/09 02:07:31;;;;;;;5.07;1.73;;;;;;;;;;4991737;28;91963;-85
2024/01/09 02:09:58;;;;;;;4.90;1.90;;;;;;;;;;4986580;28;94367;-84
2024/01/09 02:12:25;;;;;;;3.78;1.67;;;;;;;;;;4978474;28;92145;-85
2024/01/09 02:14:51;;;;;;;7.90;1.50;;;;;;;;;;4982015;28;94667;-85
2024/01/09 02:17:19;;;;;;;6.55;1.90;;;;;;;;;;4968104;28;95211;-84
2024/01/09 02:19:45;;;;;;;6.28;1.70;;;;;;;;;;4950410;28;94741;-84
2024/01/09 02:22:13;;;;;;;5.15;1.75;;;;;;;;;;4967265;28;92059;-85
2024/01/09 02:24:40;;;;;;;5.05;1.80;;;;;;;;;;4974633;28;92222;-85
2024/01/09 02:27:12;;;;;;;4.88;1.63;;;;;;;;;;4987161;28;94863;-85
2024/01/09 02:29:49;;;;;;;4.85;1.75;;;;;;;;;;4973429;28;92135;-85
2024/01/09 02:32:19;;;;;;;4.43;1.77;;;;;;;;;;4987806;28;92341;-85
2024/01/09 02:34:46;;;;;;;4.22;1.45;;;;;;;;;;4972797;28;92803;-87
2024/01/09 02:37:13;;;;;;;3.95;1.50;;;;;;;;;;4990133;28;92360;-88
2024/01/09 02:39:40;;;;;;;4.93;1.58;;;;;;;;;;4987078;28;95353;-85
2024/01/09 02:42:06;;;;;;;4.13;1.70;;;;;;;;;;4989698;28;92078;-86
2024/01/09 02:44:33;;;;;;;2.88;1.45;;;;;;;;;;4986795;28;92575;-84
2024/01/09 02:47:00;;;;;;;4.47;1.55;;;;;;;;;;4988545;28;92043;-85
2024/01/09 02:49:26;;;;;;;3.30;1.55;;;;;;;;;;4987590;28;91991;-84
2024/01/09 02:51:53;;;;;;;5.82;1.88;;;;;;;;;;4990982;28;92449;-85
2024/01/09 02:54:22;;;;;;;4.20;1.60;;;;;;;;;;4987446;28;92140;-85
2024/01/09 02:56:50;;;;;;;4.50;1.60;;;;;;;;;;4989496;28;92286;-85
2024/01/09 02:59:17;;;;;;;4.85;1.70;;;;;;;;;;4971011;28;92826;-85
2024/01/09 03:01:44;;;;;;;4.63;1.80;;;;;;;;;;4986564;28;91975;-84
2024/01/09 03:04:13;;;;;;;4.82;1.60;;;;;;;;;;4967801;28;94420;-85
2024/01/09 03:06:39;;;;;;;5.35;1.70;;;;;;;;;;4983050;28;94618;-85
2024/01/09 03:09:06;;;;;;;4.95;1.83;;;;;;;;;;4968827;28;92279;-85
2024/01/09 03:11:33;;;;;;;6.72;1.77;;;;;;;;;;4984789;28;92413;-84
2024/01/09 03:14:00;;;;;;;4.05;1.58;;;;;;;;;;4987315;28;95651;-84
2024/01/09 03:16:26;;;;;;;4.35;1.77;;;;;;;;;;4983541;28;92597;-83
2024/01/09 03:18:53;;;;;;;3.65;1.60;;;;;;;;;;4986571;28;93108;-84
2024/01/09 03:21:20;;;;;;;3.80;1.50;;;;;;;;;;4985569;28;91774;-84
2024/01/09 03:23:47;;;;;;;3.75;1.60;;;;;;;;;;4985201;28;92084;-84
2024/01/09 03:26:14;;;;;;;3.78;1.70;;;;;;;;;;4984447;28;94995;-83
2024/01/09 03:28:40;;;;;;;3.53;1.58;;;;;;;;;;4983017;28;94523;-86
2024/01/09 03:31:07;;;;;;;5.03;1.70;;;;;;;;;;4984978;28;94874;-85
2024/01/09 03:33:33;;;;;;;4.03;1.55;;;;;;;;;;4985668;28;93099;-84
2024/01/09 03:36:03;;;;;;;4.00;1.63;;;;;;;;;;4987798;28;93779;-84
2024/01/09 03:38:30;;;;;;;3.85;1.85;;;;;;;;;;4986188;28;93590;-83
2024/01/09 03:40:57;;;;;;;4.75;1.90;;;;;;;;;;4985334;28;92023;-85
2024/01/09 03:43:23;;;;;;;4.97;1.80;;;;;;;;;;4985629;28;92726;-85
2024/01/09 03:45:52;;;;;;;3.33;1.70;;;;;;;;;;4985396;28;94575;-84
2024/01/09 03:48:18;;;;;;;4.28;1.65;;;;;;;;;;4984940;28;92611;-84
2024/01/09 03:50:45;;;;;;;4.53;1.80;;;;;;;;;;4986341;28;92964;-85
2024/01/09 03:53:12;;;;;;;4.57;1.70;;;;;;;;;;4983352;28;97456;-84
2024/01/09 03:55:39;;;;;;;4.93;1.90;;;;;;;;;;4984632;28;92099;-84
2024/01/09 03:58:07;;;;;;;4.32;1.70;;;;;;;;;;5004796;28;95285;-84
2024/01/09 04:00:33;;;;;;;4.50;1.92;;;;;;;;;;4987508;28;92126;-83
2024/01/09 04:03:01;;;;;;;5.50;1.95;;;;;;;;;;5001503;27;92395;-85
2024/01/09 04:05:28;;;;;;;5.55;1.65;;;;;;;;;;4984998;28;94880;-85
2024/01/09 04:07:54;;;;;;;6.05;1.90;;;;;;;;;;4985823;28;92477;-85
2024/01/09 04:10:21;;;;;;;5.13;1.85;;;;;;;;;;4983278;28;94775;-84
2024/01/09 04:12:48;;;;;;;5.07;1.90;;;;;;;;;;4983170;28;95300;-84
2024/01/09 04:15:14;;;;;;;4.95;1.70;;;;;;;;;;4983383;28;93823;-83
2024/01/09 04:17:41;;;;;;;4.93;1.90;;;;;;;;;;4987212;28;94527;-85
2024/01/09 04:20:11;;;;;;;6.20;1.90;;;;;;;;;;4966922;28;92425;-84
2024/01/09 04:22:37;;;;;;;4.85;1.73;;;;;;;;;;4984287;28;92061;-84
2024/01/09 04:25:04;;;;;;;5.28;1.77;;;;;;;;;;4984495;28;95210;-85
2024/01/09 04:27:31;;;;;;;4.63;1.75;;;;;;;;;;4985232;28;92115;-85
2024/01/09 04:29:58;;;;;;;5.18;1.70;;;;;;;;;;4986286;28;92397;-85
2024/01/09 04:32:24;;;;;;;5.20;2.08;;;;;;;;;;4967063;28;95291;-85
2024/01/09 04:34:52;;;;;;;4.32;1.85;;;;;;;;;;4981827;28;91450;-84
2024/01/09 04:37:19;;;;;;;;;;;;;;;;;;4966019;28;92343;-84
2024/01/09 04:39:45;;;;;;;4.05;1.70;;;;;;;;;;4985085;28;114937;-84
2024/01/09 04:42:12;;;;;;;5.28;2.00;;;;;;;;;;4982766;28;94475;-81
2024/01/09 04:44:38;;;;;;;4.50;1.73;;;;;;;;;;4983226;28;92512;-85
2024/01/09 04:47:11;;;;;;;4.53;1.83;;;;;;;;;;4964943;28;92652;-84
2024/01/09 04:49:38;;;;;;;5.90;1.75;;;;;;;;;;4973640;28;92420;-83
2024/01/09 04:52:05;;;;;;;5.63;1.80;;;;;;;;;;4966096;28;92065;-84
2024/01/09 04:54:32;;;;;;;4.72;1.88;;;;;;;;;;4965007;28;92231;-84
2024/01/09 04:56:59;;;;;;;5.60;1.80;;;;;;;;;;4980813;28;94783;-83
2024/01/09 04:59:26;;;;;;;5.00;1.90;;;;;;;;;;4999627;28;92159;-85
2024/01/09 05:01:52;;;;;;;3.95;1.63;;;;;;;;;;4988588;28;92394;-86
2024/01/09 05:04:19;;;;;;;5.28;2.10;;;;;;;;;;4984021;28;95065;-85
2024/01/09 05:06:45;;;;;;;5.20;2.10;;;;;;;;;;4983062;28;94523;-86
2024/01/09 05:09:12;;;;;;;3.95;1.60;;;;;;;;;;4985498;28;97579;-85
2024/01/09 05:11:39;;;;;;;3.95;1.70;;;;;;;;;;4984365;28;95365;-85
2024/01/09 05:14:05;;;;;;;4.13;1.95;;;;;;;;;;4969086;28;92369;-84
2024/01/09 05:16:32;;;;;;;3.97;1.85;;;;;;;;;;4985557;28;92448;-84
2024/01/09 05:18:58;;;;;;;11.85;2.10;;;;;;;;;;4984794;28;94392;-83
2024/01/09 05:21:25;;;;;;;5.72;1.80;;;;;;;;;;4985715;28;92744;-85
2024/01/09 05:23:52;;;;;;;7.03;1.85;;;;;;;;;;4988598;28;92485;-84
2024/01/09 05:26:18;;;;;;;7.18;1.88;;;;;;;;;;4984025;28;92457;-84
2024/01/09 05:28:46;;;;;;;3.67;1.70;;;;;;;;;;4985607;28;95453;-85
2024/01/09 05:31:12;;;;;;;5.32;1.92;;;;;;;;;;4985560;28;95600;-85
2024/01/09 05:33:39;;;;;;;5.05;1.90;;;;;;;;;;4988809;28;92394;-84
2024/01/09 05:36:06;;;;;;;10.43;1.80;;;;;;;;;;4974267;28;93262;-85
2024/01/09 05:38:33;;;;;;;5.30;1.90;;;;;;;;;;4976947;28;93578;-86
2024/01/09 05:41:00;;;;;;;3.33;1.52;;;;;;;;;;4989924;28;92006;-86
2024/01/09 05:43:26;;;;;;;6.22;1.85;;;;;;;;;;4988794;28;92610;-85
2024/01/09 05:45:53;;;;;;;4.70;1.85;;;;;;;;;;4991355;28;95417;-85
2024/01/09 05:48:19;;;;;;;5.28;1.70;;;;;;;;;;4989345;28;91802;-85
2024/01/09 05:50:46;;;;;;;4.47;1.73;;;;;;;;;;4971475;28;95398;-85
2024/01/09 05:53:13;;;;;;;5.25;1.85;;;;;;;;;;4987336;28;92415;-85
2024/01/09 05:55:40;;;;;;;5.18;1.80;;;;;;;;;;4962731;28;95730;-84
2024/01/09 05:58:06;;;;;;;4.75;1.90;;;;;;;;;;4998927;27;92189;-85
2024/01/09 06:00:35;;;;;;;6.45;1.90;;;;;;;;;;4983973;28;92155;-81
2024/01/09 06:03:02;;;;;;;6.05;1.90;;;;;;;;;;4986002;28;92490;-82
2024/01/09 06:05:29;;;;;;;5.55;1.90;;;;;;;;;;4969005;28;93641;-84
2024/01/09 06:07:55;;;;;;;4.80;1.70;;;;;;;;;;4988997;28;92641;-82
2024/01/09 06:10:22;;;;;;;5.68;2.00;;;;;;;;;;4966919;28;95308;-83
2024/01/09 06:12:48;;;;;;;4.93;1.88;;;;;;;;;;4985743;28;91565;-83
2024/01/09 06:15:15;;;;;;;4.78;1.90;;;;;;;;;;4987452;28;92501;-83
2024/01/09 06:17:42;;;;;;;5.63;1.92;;;;;;;;;;4987480;28;92775;-84
2024/01/09 06:20:09;;;;;;;4.72;1.90;;;;;;;;;;4983939;28;94549;-83
2024/01/09 06:22:35;;;;;;;5.10;1.98;;;;;;;;;;4985756;28;94768;-83
2024/01/09 06:25:02;;;;;;;6.10;2.13;;;;;;;;;;4986862;28;95720;-83
2024/01/09 06:27:28;;;;;;;5.97;2.22;;;;;;;;;;4989007;28;92127;-82
2024/01/09 06:29:55;;;;;;;5.15;2.00;;;;;;;;;;4986779;28;93170;-83
2024/01/09 06:32:22;;;;;;;6.88;2.08;;;;;;;;;;4983614;28;92489;-82
2024/01/09 06:34:49;;;;;;;7.88;2.00;;;;;;;;;;4982393;28;92410;-83
2024/01/09 06:37:15;;;;;;;5.75;2.08;;;;;;;;;;4966715;28;94077;-83
2024/01/09 06:39:42;;;;;;;6.20;2.15;;;;;;;;;;4974429;28;92127;-84
2024/01/09 06:42:09;;;;;;;4.88;2.10;;;;;;;;;;4984304;28;93093;-82
2024/01/09 06:44:35;;;;;;;6.53;2.40;;;;;;;;;;4984464;28;95248;-83
2024/01/09 06:47:04;;;;;;;6.35;2.30;;;;;;;;;;4986841;28;92068;-83
2024/01/09 06:49:30;;;;;;;6.10;2.25;;;;;;;;;;4991149;28;92383;-85
2024/01/09 06:51:57;;;;;;;6.55;2.20;;;;;;;;;;4989849;28;91988;-85
2024/01/09 06:54:23;;;;;;;6.57;2.50;;;;;;;;;;4987419;28;95262;-85
2024/01/09 06:56:50;;;;;;;8.30;2.30;;;;;;;;;;4994010;28;94988;-84
2024/01/09 06:59:17;;;;;;;6.50;2.58;;;;;;;;;;5008342;28;92043;-85
2024/01/09 07:01:43;;;;;;;5.80;2.30;;;;;;;;;;5007930;27;92136;-85
2024/01/09 07:04:10;;;;;;;6.20;2.40;;;;;;;;;;4990441;28;94990;-85
2024/01/09 07:06:37;;;;;;;6.80;2.22;;;;;;;;;;4993083;27;92606;-85
2024/01/09 07:09:04;;;;;;;6.20;2.17;;;;;;;;;;4986153;28;94347;-84
2024/01/09 07:11:31;;;;;;;6.07;2.78;;;;;;;;;;4989703;28;94841;-83
2024/01/09 07:13:57;;;;;;;5.57;2.25;;;;;;;;;;4970677;28;94166;-83
2024/01/09 07:16:24;;;;;;;6.88;2.50;;;;;;;;;;4984481;28;95390;-83
2024/01/09 07:18:51;;;;;;;6.45;2.13;;;;;;;;;;4987085;28;92015;-84
2024/01/09 07:21:18;;;;;;;5.70;2.22;;;;;;;;;;4987977;28;92812;-83
2024/01/09 07:23:46;;;;;;;5.68;2.20;;;;;;;;;;4987354;28;93085;-84
2024/01/09 07:26:14;;;;;;;8.73;2.65;;;;;;;;;;4987271;28;91395;-91
2024/01/09 07:28:41;;;;;;;7.85;2.22;;;;;;;;;;4984045;28;96917;-89
2024/01/09 07:31:12;;;;;;;6.13;2.25;;;;;;;;;;4990039;28;93207;-88
2024/01/09 07:33:39;;;;;;;13.52;2.60;;;;;;;;;;4991072;28;94444;-87
2024/01/09 07:36:08;;;;;;;6.32;2.30;;;;;;;;;;4988177;28;94839;-88
2024/01/09 07:38:38;;;;;;;6.28;1.98;;;;;;;;;;4987759;28;92568;-88
2024/01/09 07:41:04;;;;;;;8.27;2.13;;;;;;;;;;4982505;28;92453;-88
2024/01/09 07:43:33;;;;;;;6.97;2.10;;;;;;;;;;4974822;28;95112;-89
2024/01/09 07:46:03;;;;;;;5.45;1.90;;;;;;;;;;4968087;28;92173;-86
2024/01/09 07:48:37;;;;;;;5.57;1.92;;;;;;;;;;4977770;28;94778;-87
2024/01/09 07:51:07;;;;;;;5.22;2.05;;;;;;;;;;4989043;28;91358;-89
2024/01/09 07:53:40;;;;;;;5.30;2.15;;;;;;;;;;4990058;28;92197;-88
2024/01/09 07:56:21;;;;;;;5.75;2.00;;;;;;;;;;4986222;28;94570;-87
2024/01/09 07:58:50;;;;;;;5.55;2.10;;;;;;;;;;5008311;27;94392;-88
2024/01/09 08:01:19;;;;;;;6.65;2.00;;;;;;;;;;4971918;28;96413;-89
2024/01/09 08:03:51;;;;;;;5.55;1.90;;;;;;;;;;4970595;28;98608;-88
2024/01/09 08:06:57;;;;;;;8.05;2.17;;;;;;;;;;4969425;28;92095;-86
2024/01/09 08:09:30;;;;;;;4.63;1.90;;;;;;;;;;4986469;28;94955;-87
2024/01/09 08:11:57;;;;;;;4.43;1.73;;;;;;;;;;4981431;28;94380;-85
2024/01/09 08:14:24;;;;;;;4.50;1.95;;;;;;;;;;4982581;28;92308;-86
2024/01/09 08:16:51;;;;;;;9.02;2.20;;;;;;;;;;4980465;28;95137;-85
2024/01/09 08:19:21;;;;;;;3.95;1.90;;;;;;;;;;4986456;28;92301;-86
2024/01/09 08:21:50;;;;;;;4.47;1.73;;;;;;;;;;4982815;28;94770;-85
2024/01/09 08:24:18;;;;;;;3.85;1.70;;;;;;;;;;4964440;28;97907;-85
2024/01/09 08:26:48;;;;;;;5.15;1.85;;;;;;;;;;4987451;28;92126;-84
2024/01/09 08:29:18;;;;;;;9.50;1.95;;;;;;;;;;4976972;28;95294;-86
2024/01/09 08:31:51;;;;;;;5.35;1.80;;;;;;;;;;4988524;28;92557;-87
2024/01/09 08:34:18;;;;;;;8.73;1.90;;;;;;;;;;4963948;28;92221;-80
2024/01/09 08:36:45;;;;;;;5.53;2.00;;;;;;;;;;4982759;28;93576;-82
2024/01/09 08:39:13;;;;;;;4.93;2.00;;;;;;;;;;4985358;28;92701;-82
2024/01/09 08:41:41;;;;;;;5.40;1.80;;;;;;;;;;4963578;28;92651;-80
2024/01/09 08:44:08;;;;;;;4.18;1.80;;;;;;;;;;4981131;28;92582;-81
2024/01/09 08:46:36;;;;;;;5.93;1.80;;;;;;;;;;4982440;28;92049;-81
2024/01/09 08:49:02;;;;;;;5.07;1.98;;;;;;;;;;4982250;28;94471;-81
2024/01/09 08:51:29;;;;;;;3.83;1.80;;;;;;;;;;4981661;28;95283;-81
2024/01/09 08:53:56;;;;;;;4.05;1.60;;;;;;;;;;4966231;28;92376;-82
2024/01/09 08:56:23;;;;;;;5.05;1.90;;;;;;;;;;4983921;28;94639;-81
2024/01/09 08:58:49;;;;;;;5.07;2.20;;;;;;;;;;4977960;28;97055;-82
2024/01/09 09:01:20;;;;;;;3.83;1.80;;;;;;;;;;4986332;28;92159;-81
2024/01/09 09:03:48;;;;;;;3.95;1.60;;;;;;;;;;4984010;28;92392;-82
2024/01/09 09:06:14;;;;;;;4.25;1.83;;;;;;;;;;4984538;28;91631;-81
2024/01/09 09:08:41;;;;;;;4.97;1.85;;;;;;;;;;4980787;28;99322;-81
2024/01/09 09:11:08;;;;;;;4.20;1.83;;;;;;;;;;4983134;28;92777;-81
2024/01/09 09:13:34;;;;;;;4.40;1.83;;;;;;;;;;4981431;28;95072;-80
2024/01/09 09:16:01;;;;;;;4.05;1.58;;;;;;;;;;4980577;28;95039;-81
2024/01/09 09:18:28;;;;;;;3.83;1.80;;;;;;;;;;4971135;28;95211;-80
2024/01/09 09:20:54;;;;;;;3.97;1.80;;;;;;;;;;4976973;28;92196;-82
2024/01/09 09:23:21;;;;;;;3.70;1.63;;;;;;;;;;4985492;28;92764;-80
2024/01/09 09:25:48;;;;;;;3.78;1.63;;;;;;;;;;4982135;28;92068;-82
2024/01/09 09:28:14;;;;;;;3.72;1.70;;;;;;;;;;4980770;28;92775;-82
2024/01/09 09:30:41;;;;;;;3.65;1.73;;;;;;;;;;4981450;28;95677;-81
2024/01/09 09:33:08;;;;;;;4.55;1.77;;;;;;;;;;4980855;28;92506;-82
2024/01/09 09:35:36;;;;;;;3.80;1.80;;;;;;;;;;4979681;28;95078;-83
2024/01/09 09:38:04;;;;;;;4.25;1.70;;;;;;;;;;4973895;28;97360;-84
2024/01/09 09:40:30;;;;;;;5.05;1.80;;;;;;;;;;4979019;28;92524;-81
2024/01/09 09:43:00;;;;;;;3.30;1.63;;;;;;;;;;4979246;28;93376;-79
2024/01/09 09:45:27;;;;;;;3.72;1.73;;;;;;;;;;4982790;28;93074;-82
2024/01/09 09:47:55;;;;;;;5.30;2.13;;;;;;;;;;4979268;28;95093;-81
2024/01/09 09:50:22;;;;;;;3.17;1.58;;;;;;;;;;4979344;28;93204;-80
2024/01/09 09:52:49;;;;;;;4.13;1.48;;;;;;;;;;4962611;28;92472;-80
2024/01/09 09:55:17;;;;;;;3.72;1.60;;;;;;;;;;4976018;28;92448;-80
2024/01/09 09:57:44;;;;;;;3.65;1.60;;;;;;;;;;4979202;28;93546;-81
2024/01/09 10:00:11;;;;;;;3.63;1.70;;;;;;;;;;4980558;28;92391;-81
2024/01/09 10:02:38;;;;;;;4.15;1.70;;;;;;;;;;4979017;28;94632;-80
2024/01/09 10:05:10;;;;;;;3.63;1.70;;;;;;;;;;4980051;28;92900;-82
2024/01/09 10:07:38;;;;;;;3.42;1.60;;;;;;;;;;4972262;28;92241;-81
2024/01/09 10:10:06;;;;;;;4.05;1.63;;;;;;;;;;4976248;28;92703;-84
2024/01/09 10:12:33;;;;;;;3.08;1.50;;;;;;;;;;4980062;28;92205;-81
2024/01/09 10:15:12;;;;;;;2.83;1.48;;;;;;;;;;4978525;28;93217;-82
2024/01/09 10:17:40;;;;;;;3.70;1.77;;;;;;;;;;4980521;28;92335;-81
2024/01/09 10:20:11;;;;;;;3.33;1.50;;;;;;;;;;4983609;28;91844;-82
2024/01/09 10:22:41;;;;;;;3.67;1.55;;;;;;;;;;4983430;28;92576;-83
2024/01/09 10:25:09;;;;;;;3.85;1.60;;;;;;;;;;4983696;28;92741;-81
2024/01/09 10:27:37;;;;;;;3.13;1.50;;;;;;;;;;4983784;28;94670;-80
2024/01/09 10:30:04;;;;;;;3.35;1.60;;;;;;;;;;4983307;28;93065;-80
2024/01/09 10:32:32;;;;;;;3.40;1.70;;;;;;;;;;4982656;28;92312;-79
2024/01/09 10:34:59;;;;;;;3.33;1.60;;;;;;;;;;4981652;28;92555;-79
2024/01/09 10:37:25;;;;;;;4.38;1.70;;;;;;;;;;4977908;28;92786;-78
2024/01/09 10:39:52;;;;;;;6.05;1.80;;;;;;;;;;4975381;28;93034;-81
2024/01/09 10:42:19;;;;;;;2.88;1.48;;;;;;;;;;4959604;28;94776;-80
2024/01/09 10:44:47;;;;;;;3.55;1.60;;;;;;;;;;4973000;28;91928;-77
2024/01/09 10:47:14;;;;;;;3.45;1.40;;;;;;;;;;4976411;28;92241;-81
2024/01/09 10:49:42;;;;;;;4.03;1.60;;;;;;;;;;4968516;28;93123;-79
2024/01/09 10:52:18;;;;;;;2.75;1.42;;;;;;;;;;4975756;28;94798;-80
2024/01/09 10:54:44;;;;;;;3.83;1.40;;;;;;;;;;4982915;28;99711;-81
2024/01/09 10:57:12;;;;;;;3.08;1.50;;;;;;;;;;4975600;28;92918;-80
2024/01/09 10:59:40;;;;;;;3.17;1.58;;;;;;;;;;4950100;28;92132;-79
2024/01/09 11:02:09;;;;;;;5.38;1.52;;;;;;;;;;4982841;28;92512;-80
2024/01/09 11:04:36;;;;;;;3.08;1.40;;;;;;;;;;4981889;28;93081;-80
2024/01/09 11:07:02;;;;;;;4.00;1.60;;;;;;;;;;4980957;28;92495;-81
2024/01/09 11:09:30;;;;;;;2.17;1.42;;;;;;;;;;4982864;28;92319;-82
2024/01/09 11:11:57;;;;;;;2.92;1.55;;;;;;;;;;4984751;28;92769;-79
2024/01/09 11:14:24;;;;;;;2.40;1.40;;;;;;;;;;4981983;28;92215;-82
2024/01/09 11:16:53;;;;;;;2.53;1.38;;;;;;;;;;4981253;28;95982;-79
2024/01/09 11:19:19;;;;;;;3.20;1.40;;;;;;;;;;4981117;28;92573;-79
2024/01/09 11:21:46;;;;;;;3.25;1.50;;;;;;;;;;4981239;28;94597;-79
2024/01/09 11:24:12;;;;;;;3.10;1.40;;;;;;;;;;4982620;28;93134;-80
2024/01/09 11:26:41;;;;;;;3.20;1.60;;;;;;;;;;4962408;28;92463;-80
2024/01/09 11:29:08;;;;;;;3.58;1.40;;;;;;;;;;4975413;28;92516;-79
2024/01/09 11:31:35;;;;;;;3.53;1.40;;;;;;;;;;4981229;28;93078;-79
2024/01/09 11:34:02;;;;;;;3.00;1.42;;;;;;;;;;4984771;28;91364;-79
2024/01/09 11:36:33;;;;;;;2.80;1.40;;;;;;;;;;4974545;28;94901;-79
2024/01/09 11:39:00;;;;;;;2.35;1.35;;;;;;;;;;4979482;28;92688;-80
2024/01/09 11:41:31;;;;;;;3.38;1.42;;;;;;;;;;4980172;28;94705;-81
2024/01/09 11:44:05;;;;;;;2.83;1.40;;;;;;;;;;4955790;28;94915;-80
2024/01/09 11:46:34;;;;;;;1.95;1.23;;;;;;;;;;4980126;28;93775;-80
2024/01/09 11:49:00;;;;;;;2.70;1.42;;;;;;;;;;4981937;28;96245;-81
2024/01/09 11:51:31;;;;;;;3.53;1.50;;;;;;;;;;4981022;28;94686;-81
2024/01/09 11:54:00;;;;;;;2.90;1.40;;;;;;;;;;4977953;28;92014;-81
2024/01/09 11:56:28;;;;;;;2.70;1.45;;;;;;;;;;4965456;28;92885;-79
2024/01/09 11:58:55;;;;;;;;;;;;;;;;;;4980029;28;91944;-81
2024/01/09 12:01:21;;;;;;;2.88;1.30;;;;;;;;;;4982291;28;102214;-80
2024/01/09 12:03:52;;;;;;;3.15;1.40;;;;;;;;;;4967582;28;95612;-80
2024/01/09 12:06:20;;;;;;;2.13;1.20;;;;;;;;;;4972405;28;94660;-80
2024/01/09 12:08:47;;;;;;;3.22;1.50;;;;;;;;;;4968063;28;94815;-80
2024/01/09 12:11:14;;;;;;;2.20;1.35;;;;;;;;;;4944269;28;95403;-79
2024/01/09 12:13:42;;;;;;;3.28;1.33;;;;;;;;;;4973095;28;92364;-79
2024/01/09 12:16:18;;;;;;;2.63;1.30;;;;;;;;;;4979906;28;92497;-79
2024/01/09 12:18:46;;;;;;;2.55;1.30;;;;;;;;;;4982661;28;97629;-80
2024/01/09 12:21:13;;;;;;;3.40;1.58;;;;;;;;;;4982160;28;92263;-79
2024/01/09 12:23:40;;;;;;;3.10;1.33;;;;;;;;;;4979166;28;94094;-80
2024/01/09 12:26:28;;;;;;;2.60;1.35;;;;;;;;;;4978699;28;92324;-80
2024/01/09 12:28:55;;;;;;;2.65;1.30;;;;;;;;;;4981140;28;92202;-79
2024/01/09 12:31:22;;;;;;;2.28;1.20;;;;;;;;;;4979804;28;95982;-80
2024/01/09 12:33:49;;;;;;;2.47;1.30;;;;;;;;;;4981164;28;93473;-80
2024/01/09 12:36:19;;;;;;;3.15;1.25;;;;;;;;;;4963350;28;92665;-79
2024/01/09 12:38:46;;;;;;;2.72;1.40;;;;;;;;;;4978884;28;94935;-79
2024/01/09 12:41:13;;;;;;;2.88;1.20;;;;;;;;;;4979347;28;94447;-78
2024/01/09 12:43:39;;;;;;;2.83;1.42;;;;;;;;;;4971663;28;92814;-79
2024/01/09 12:46:07;;;;;;;2.55;1.33;;;;;;;;;;4979986;28;92160;-80
2024/01/09 12:48:33;;;;;;;2.30;1.20;;;;;;;;;;4979226;28;92748;-79
2024/01/09 12:51:01;;;;;;;2.20;1.20;;;;;;;;;;4980814;28;92726;-79
2024/01/09 12:53:31;;;;;;;2.83;1.30;;;;;;;;;;4979698;28;92203;-80
2024/01/09 12:56:02;;;;;;;2.33;1.20;;;;;;;;;;4977323;28;94806;-80
2024/01/09 12:58:30;;;;;;;1.85;1.20;;;;;;;;;;4979310;28;94980;-78
2024/01/09 13:00:56;;;;;;;2.40;1.33;;;;;;;;;;4983253;28;92150;-80
2024/01/09 13:03:23;;;;;;;1.77;1.15;;;;;;;;;;4986624;28;95708;-80
2024/01/09 13:05:53;;;;;;;1.98;1.13;;;;;;;;;;4986330;28;92629;-80
2024/01/09 13:08:19;;;;;;;1.35;1.05;;;;;;;;;;4980186;28;92376;-80
2024/01/09 13:10:46;;;;;;;2.50;1.30;;;;;;;;;;4979390;28;92818;-79
2024/01/09 13:13:13;;;;;;;;;;;;;;;;;;4981455;28;91534;-79
2024/01/09 13:15:39;;;;;;;2.83;1.25;;;;;;;;;;4982195;28;92156;-78
2024/01/09 13:18:06;;;;;;;2.72;1.38;;;;;;;;;;4980444;28;92157;-80
2024/01/09 13:20:38;;;;;;;2.63;1.23;;;;;;;;;;4977591;28;95268;-80
2024/01/09 13:23:05;;;;;;;1.92;1.20;;;;;;;;;;4983055;28;94736;-80
2024/01/09 13:25:35;;;;;;;1.85;1.02;;;;;;;;;;4963081;28;92554;-82
2024/01/09 13:28:01;;;;;;;2.67;1.20;;;;;;;;;;4981984;28;92808;-82
2024/01/09 13:30:28;;;;;;;2.25;1.15;;;;;;;;;;4963760;28;94157;-81
2024/01/09 13:32:57;;;;;;;3.30;1.40;;;;;;;;;;4980265;28;92479;-82
2024/01/09 13:35:24;;;;;;;;;;;;;;;;;;4972731;28;92495;-83
2024/01/09 13:37:55;;;;;;;2.97;1.20;;;;;;;;;;4972055;28;105501;-82
2024/01/09 13:40:22;;;;;;;2.35;1.30;;;;;;;;;;4962682;28;92672;-84
2024/01/09 13:42:49;;;;;;;2.95;1.23;;;;;;;;;;4981474;28;92425;-83
2024/01/09 13:45:16;;;;;;;;;;;;;;;;;;4983050;28;98091;-82
2024/01/09 13:47:43;;;;;;;3.13;1.27;;;;;;;;;;4983057;28;104949;-83
2024/01/09 13:50:11;;;;;;;3.03;1.30;;;;;;;;;;4981726;28;94241;-81
2024/01/09 13:52:57;;;;;;;2.10;1.13;;;;;;;;;;4983806;28;92197;-84
2024/01/09 13:55:24;;;;;;;2.45;1.15;;;;;;;;;;4983525;28;92395;-81
2024/01/09 13:57:51;;;;;;;2.85;1.23;;;;;;;;;;4981576;28;99889;-77
2024/01/09 14:00:17;;;;;;;6.65;1.55;;;;;;;;;;4981769;28;92371;-80
2024/01/09 14:02:44;;;;;;;2.08;1.05;;;;;;;;;;4982648;28;93972;-81
2024/01/09 14:05:12;;;;;;;4.28;1.45;;;;;;;;;;4983531;28;93033;-78
2024/01/09 14:07:41;;;;;;;5.50;1.33;;;;;;;;;;4986455;28;92531;-81
2024/01/09 14:10:09;;;;;;;4.38;1.38;;;;;;;;;;4982000;28;95380;-78
2024/01/09 14:12:36;;;;;;;3.08;1.35;;;;;;;;;;4981752;28;92118;-79
2024/01/09 14:15:03;;;;;;;4.57;1.40;;;;;;;;;;4982275;28;94189;-78
2024/01/09 14:17:30;;;;;;;5.28;1.30;;;;;;;;;;4983218;28;92840;-82
2024/01/09 14:19:57;;;;;;;2.75;1.20;;;;;;;;;;4966423;28;92121;-82
2024/01/09 14:22:25;;;;;;;3.53;1.17;;;;;;;;;;4962616;28;94634;-82
2024/01/09 14:24:52;;;;;;;4.45;1.50;;;;;;;;;;4983385;28;93488;-82
2024/01/09 14:27:22;;;;;;;3.78;1.35;;;;;;;;;;4983325;28;93163;-82
2024/01/09 14:29:50;;;;;;;2.60;1.40;;;;;;;;;;4965379;28;92192;-82
2024/01/09 14:32:18;;;;;;;3.53;1.30;;;;;;;;;;4969989;28;92262;-82
2024/01/09 14:34:45;;;;;;;3.80;1.15;;;;;;;;;;4975934;28;94617;-82
2024/01/09 14:37:13;;;;;;;2.67;1.30;;;;;;;;;;4980422;28;92743;-82
2024/01/09 14:39:41;;;;;;;3.70;1.30;;;;;;;;;;4983863;28;93618;-82
2024/01/09 14:42:07;;;;;;;5.18;1.33;;;;;;;;;;4983595;28;92295;-82
2024/01/09 14:44:34;;;;;;;2.28;1.08;;;;;;;;;;4982577;28;92877;-82